createdAt,value
2023-02-27T00:25:11.967Z,102055.00
2023-02-27T00:30:35.538Z,102065.00
2023-02-27T00:36:00.627Z,102068.00
2023-02-27T00:41:25.163Z,102057.00
2023-02-27T00:46:48.025Z,102057.00
2023-02-27T00:52:10.661Z,102063.00
2023-02-27T00:57:34.605Z,102060.00
2023-02-27T01:02:57.235Z,102056.00
2023-02-27T01:08:19.992Z,102053.00
2023-02-27T01:13:44.426Z,102055.00
2023-02-27T01:19:06.935Z,102064.00
2023-02-27T01:24:29.594Z,102054.00
2023-02-27T01:29:53.472Z,102046.00
2023-02-27T01:35:16.215Z,102067.00
2023-02-27T01:40:41.132Z,102077.00
2023-02-27T01:46:05.391Z,102078.00
2023-02-27T01:51:34.632Z,102091.00
2023-02-27T01:56:57.350Z,102095.00
2023-02-27T02:02:27.931Z,102102.00
2023-02-27T02:07:53.036Z,102100.00
2023-02-27T02:13:15.991Z,102107.00
2023-02-27T02:18:49.697Z,102111.00
2023-02-27T02:25:15.430Z,102113.00
2023-02-27T02:31:26.027Z,102120.00
2023-02-27T02:37:39.031Z,102138.00
2023-02-27T02:43:13.734Z,102131.00
2023-02-27T02:48:47.261Z,102129.00
2023-02-27T02:54:16.707Z,102135.00
2023-02-27T02:59:50.206Z,102140.00
2023-02-27T03:05:20.583Z,102156.00
2023-02-27T03:10:49.167Z,102160.00
2023-02-27T03:16:23.679Z,102160.00
2023-02-27T03:21:53.559Z,102174.00
2023-02-27T03:27:18.976Z,102160.00
2023-02-27T03:32:55.292Z,102177.00
2023-02-27T03:38:31.291Z,102185.00
2023-02-27T03:44:07.784Z,102186.00
2023-02-27T03:49:32.079Z,102183.00
2023-02-27T03:55:00.582Z,102191.00
2023-02-27T04:00:26.741Z,102191.00
2023-02-27T04:05:51.019Z,102194.00
2023-02-27T04:11:35.104Z,102207.00
2023-02-27T04:17:22.485Z,102199.00
2023-02-27T04:22:52.343Z,102198.00
2023-02-27T04:28:19.019Z,102206.00
2023-02-27T04:33:49.168Z,102202.00
2023-02-27T04:39:21.860Z,102215.00
2023-02-27T04:44:48.738Z,102216.00
2023-02-27T04:50:21.886Z,102215.00
2023-02-27T04:55:51.384Z,102226.00
2023-02-27T05:01:20.885Z,102236.00
2023-02-27T05:06:47.945Z,102234.00
2023-02-27T05:12:21.238Z,102241.00
2023-02-27T05:17:55.367Z,102236.00
2023-02-27T05:23:28.707Z,102261.00
2023-02-27T05:29:03.197Z,102272.00
2023-02-27T05:34:33.388Z,102274.00
2023-02-27T05:39:58.346Z,102292.00
2023-02-27T05:45:29.365Z,102298.00
2023-02-27T05:50:54.813Z,102296.00
2023-02-27T05:56:23.264Z,102294.00
2023-02-27T06:01:47.790Z,102308.00
2023-02-27T06:07:12.135Z,102306.00
2023-02-27T06:12:35.068Z,102303.00
2023-02-27T06:17:59.577Z,102316.00
2023-02-27T06:23:22.573Z,102326.00
2023-02-27T06:28:54.320Z,102332.00
2023-02-27T06:34:18.465Z,102331.00
2023-02-27T06:39:41.794Z,102332.00
2023-02-27T06:45:05.997Z,102329.00
2023-02-27T06:50:43.792Z,102338.00
2023-02-27T06:56:13.078Z,102349.00
2023-02-27T07:01:39.653Z,102340.00
2023-02-27T07:07:35.109Z,102357.00
2023-02-27T07:12:50.530Z,102345.00
2023-02-27T07:18:20.772Z,102347.00
2023-02-27T07:23:54.698Z,102355.00
2023-02-27T07:29:18.700Z,102371.00
2023-02-27T07:40:39.990Z,102375.00
2023-02-27T07:46:15.866Z,102385.00
2023-02-27T08:05:15.801Z,102395.00
2023-02-27T09:01:44.122Z,102432.00
2023-02-27T09:08:00.438Z,102420.00
2023-02-27T09:18:26.389Z,102434.00
2023-02-27T09:23:38.647Z,102463.00
2023-02-27T09:33:57.323Z,102449.00
2023-02-27T10:45:18.280Z,102506.00
2023-02-27T12:11:37.614Z,102522.00
2023-02-27T12:16:50.345Z,102518.00
2023-02-27T12:22:20.180Z,102513.00
2023-02-27T12:34:01.713Z,102507.00
2023-02-27T12:45:51.676Z,102516.00
2023-02-27T13:47:56.847Z,102554.00
2023-02-27T14:09:17.808Z,102559.00
2023-02-27T14:20:51.950Z,102556.00
2023-02-27T15:05:37.478Z,102617.00
2023-02-27T15:10:43.595Z,102607.00
2023-02-27T15:15:46.111Z,102616.00
2023-02-27T15:20:57.958Z,102622.00
2023-02-27T15:26:00.768Z,102619.00
2023-02-27T15:31:04.217Z,102625.00
2023-02-27T15:36:08.712Z,102629.00
2023-02-27T15:41:14.296Z,102624.00
2023-02-27T15:46:17.212Z,102618.00
2023-02-27T15:51:21.097Z,102634.00
2023-02-27T15:56:31.520Z,102634.00
2023-02-27T16:01:34.999Z,102644.00
2023-02-27T16:06:46.721Z,102650.00
2023-02-27T16:11:49.725Z,102644.00
2023-02-27T16:16:55.748Z,102657.00
2023-02-27T16:22:13.543Z,102666.00
2023-02-27T16:27:22.291Z,102669.00
2023-02-27T16:32:28.679Z,102676.00
2023-02-27T16:37:38.424Z,102677.00
2023-02-27T16:42:40.997Z,102678.00
2023-02-27T16:47:43.571Z,102677.00
2023-02-27T16:52:47.491Z,102687.00
2023-02-27T16:57:49.889Z,102688.00
2023-02-27T17:02:52.361Z,102700.00
2023-02-27T17:07:56.024Z,102709.00
2023-02-27T17:12:58.662Z,102729.00
2023-02-27T17:18:01.150Z,102736.00
2023-02-27T17:23:05.132Z,102741.00
2023-02-27T17:28:08.671Z,102736.00
2023-02-27T17:33:11.021Z,102741.00
2023-02-27T17:38:15.137Z,102736.00
2023-02-27T17:43:17.655Z,102749.00
2023-02-27T17:48:20.145Z,102748.00
2023-02-27T17:53:24.769Z,102737.00
2023-02-27T17:58:27.747Z,102751.00
2023-02-27T18:03:30.234Z,102752.00
2023-02-27T18:08:34.709Z,102751.00
2023-02-27T18:13:38.589Z,102756.00
2023-02-27T18:18:42.946Z,102761.00
2023-02-27T18:23:47.866Z,102762.00
2023-02-27T18:28:50.262Z,102772.00
2023-02-27T18:33:53.324Z,102773.00
2023-02-27T18:38:57.723Z,102782.00
2023-02-27T18:44:00.197Z,102778.00
2023-02-27T18:49:02.865Z,102781.00
2023-02-27T18:54:06.811Z,102797.00
2023-02-27T18:59:09.534Z,102789.00
2023-02-27T19:04:11.882Z,102806.00
2023-02-27T19:09:16.060Z,102809.00
2023-02-27T19:14:18.595Z,102800.00
2023-02-27T19:19:21.011Z,102813.00
2023-02-27T19:24:25.555Z,102811.00
2023-02-27T19:29:28.423Z,102814.00
2023-02-27T19:34:31.606Z,102817.00
2023-02-27T19:39:36.117Z,102831.00
2023-02-27T19:44:39.129Z,102830.00
2023-02-27T19:49:41.513Z,102842.00
2023-02-27T19:54:45.328Z,102840.00
2023-02-27T19:59:47.870Z,102842.00
2023-02-27T20:04:50.315Z,102843.00
2023-02-27T20:09:54.131Z,102854.00
2023-02-27T20:14:56.808Z,102845.00
2023-02-27T20:19:59.324Z,102842.00
2023-02-27T20:25:03.045Z,102844.00
2023-02-27T20:30:07.480Z,102855.00
2023-02-27T20:35:10.943Z,102857.00
2023-02-27T20:40:15.199Z,102838.00
2023-02-27T20:45:18.452Z,102855.00
2023-02-27T20:50:21.012Z,102859.00
2023-02-27T20:55:25.268Z,102856.00
2023-02-27T21:00:28.786Z,102848.00
2023-02-27T21:05:31.207Z,102864.00
2023-02-27T21:10:38.893Z,102863.00
2023-02-27T21:15:41.524Z,102863.00
2023-02-27T21:20:44.941Z,102859.00
2023-02-27T21:25:48.911Z,102865.00
2023-02-27T21:30:51.621Z,102867.00
2023-02-27T21:35:54.164Z,102863.00
2023-02-27T21:40:58.161Z,102864.00
2023-02-27T21:46:05.118Z,102865.00
2023-02-27T21:51:08.248Z,102868.00
2023-02-27T21:56:12.915Z,102870.00
2023-02-27T22:01:19.864Z,102872.00
2023-02-27T22:06:24.145Z,102877.00
2023-02-27T22:11:29.572Z,102875.00
2023-02-27T22:16:32.299Z,102861.00
2023-02-27T22:21:36.145Z,102867.00
2023-02-27T22:26:39.991Z,102864.00
2023-02-27T22:31:42.636Z,102874.00
2023-02-27T22:36:46.642Z,102864.00
2023-02-27T22:41:50.809Z,102879.00
2023-02-27T22:46:53.174Z,102879.00
2023-02-27T22:51:55.561Z,102879.00
2023-02-27T22:56:59.478Z,102877.00
2023-02-27T23:02:01.974Z,102880.00
2023-02-27T23:07:04.543Z,102870.00
2023-02-27T23:12:08.402Z,102890.00
2023-02-27T23:17:10.946Z,102883.00
2023-02-27T23:22:13.301Z,102886.00
2023-02-27T23:27:25.842Z,102889.00
2023-02-27T23:32:30.742Z,102887.00
2023-02-27T23:37:33.260Z,102890.00
2023-02-27T23:42:37.153Z,102900.00
2023-02-27T23:47:39.630Z,102902.00
2023-02-27T23:52:42.103Z,102901.00
2023-02-27T23:57:46.304Z,102912.00
